Time;durP1;ratioP1;P1;durP2;ratioP2;P2;SDS_P1;SDS_P2;PMS_P1;PMS_P2;Temp;Humidity;BMP_temperature;BMP_pressure;BME280_temperature;BME280_humidity;BME280_pressure;Samples;Min_cycle;Max_cycle;Signal;HPM_P1;HPM_P2
2022/01/05 00:02:21;;;;;;;4.40;1.15;;;;;;;3.10;93.29;99064.63;4944194;28;20035;-79
2022/01/05 00:04:48;;;;;;;5.10;1.33;;;;;;;3.06;93.33;99059.47;4953968;28;20059;-83
2022/01/05 00:07:15;;;;;;;6.15;1.13;;;;;;;3.00;94.00;99060.38;4930146;28;20061;-84
2022/01/05 00:09:42;;;;;;;9.20;1.23;;;;;;;2.97;94.11;99060.34;4936922;28;20055;-82
2022/01/05 00:12:10;;;;;;;4.50;1.50;;;;;;;2.94;94.26;99065.56;4925334;29;20043;-81
2022/01/05 00:14:38;;;;;;;10.88;1.75;;;;;;;2.97;94.34;99058.66;4928991;28;20058;-79
2022/01/05 00:17:05;;;;;;;7.45;1.30;;;;;;;3.02;94.18;99060.34;4931568;28;20086;-82
2022/01/05 00:19:34;;;;;;;9.55;1.35;;;;;;;3.00;94.15;99057.78;4938905;28;20118;-80
2022/01/05 00:22:02;;;;;;;4.32;1.15;;;;;;;3.07;93.76;99054.28;4939522;28;20047;-80
2022/01/05 00:24:29;;;;;;;7.07;1.25;;;;;;;3.08;94.11;99047.41;4951946;28;20051;-81
2022/01/05 00:26:55;;;;;;;4.68;1.05;;;;;;;3.07;94.02;99046.53;4940388;28;20047;-80
2022/01/05 00:29:24;;;;;;;10.27;1.83;;;;;;;3.07;94.18;99050.84;4945701;28;20047;-84
2022/01/05 00:31:51;;;;;;;10.98;1.45;;;;;;;3.05;93.97;99055.16;4936911;28;20051;-82
2022/01/05 00:34:19;;;;;;;4.20;1.55;;;;;;;3.05;94.18;99056.03;4928715;28;20568;-82
2022/01/05 00:36:46;;;;;;;8.18;2.88;;;;;;;3.01;94.40;99056.03;4918699;28;20058;-81
2022/01/05 00:39:15;;;;;;;3.42;1.10;;;;;;;3.00;94.18;99060.38;4932636;28;20083;-81
2022/01/05 00:41:41;;;;;;;3.38;1.17;;;;;;;2.97;94.39;99073.28;4932301;28;20062;-83
2022/01/05 00:44:08;;;;;;;6.97;1.70;;;;;;;2.98;94.23;99075.84;4924157;28;20047;-84
2022/01/05 00:46:34;;;;;;;1.90;0.90;;;;;;;3.00;94.39;99072.41;4937211;28;20051;-81
2022/01/05 00:49:01;;;;;;;6.00;1.40;;;;;;;2.99;93.61;99066.41;4951147;28;20059;-82
2022/01/05 00:51:27;;;;;;;4.47;1.60;;;;;;;3.02;94.35;99078.44;4939864;28;20132;-83
2022/01/05 00:53:55;;;;;;;6.32;1.30;;;;;;;3.04;93.80;99077.56;4927239;28;20075;-83
2022/01/05 00:56:22;;;;;;;7.18;2.10;;;;;;;3.06;93.82;99074.97;4942643;28;20043;-81
2022/01/05 00:58:48;;;;;;;4.18;1.00;;;;;;;3.05;93.45;99081.88;4924331;28;20474;-81
2022/01/05 01:01:15;;;;;;;4.82;1.30;;;;;;;3.05;93.52;99084.47;4915631;28;20055;-82
2022/01/05 01:03:42;;;;;;;10.85;2.33;;;;;;;3.05;93.46;99068.09;4904575;29;20050;-80
2022/01/05 01:06:08;;;;;;;3.20;1.00;;;;;;;3.04;93.54;99075.00;4890854;29;20102;-83
2022/01/05 01:08:36;;;;;;;4.38;1.48;;;;;;;3.08;93.03;99081.03;4905225;29;20051;-82
2022/01/05 01:11:03;;;;;;;3.83;1.40;;;;;;;3.07;93.17;99076.72;4889528;29;20063;-79
2022/01/05 01:13:29;;;;;;;2.70;1.35;;;;;;;3.08;93.14;99074.09;4924351;29;20095;-80
2022/01/05 01:15:56;;;;;;;4.32;1.35;;;;;;;3.08;92.75;99076.69;4902156;29;21311;-80
2022/01/05 01:18:22;;;;;;;5.15;1.58;;;;;;;3.08;92.97;99074.09;4904761;29;20056;-81
2022/01/05 01:20:50;;;;;;;5.57;1.20;;;;;;;3.05;92.94;99074.13;4907651;29;20059;-81
2022/01/05 01:23:21;;;;;;;4.95;1.70;;;;;;;3.05;92.75;99068.09;4905295;29;20075;-83
2022/01/05 01:25:50;;;;;;;6.93;1.67;;;;;;;3.04;92.23;99069.81;4906800;29;20055;-82
2022/01/05 01:28:23;;;;;;;3.90;1.38;;;;;;;3.06;92.34;99074.97;4887928;29;20056;-81
2022/01/05 01:30:50;;;;;;;6.22;1.80;;;;;;;3.05;92.07;99083.59;4910091;28;20055;-83
2022/01/05 01:33:20;;;;;;;7.25;1.45;;;;;;;3.02;91.78;99084.47;4939347;28;20051;-85
2022/01/05 01:35:47;;;;;;;6.85;1.88;;;;;;;3.02;92.46;99088.78;4933203;28;20406;-82
2022/01/05 01:38:13;;;;;;;5.15;1.52;;;;;;;3.03;91.72;99091.38;4936133;28;20055;-84
2022/01/05 01:40:40;;;;;;;6.88;1.90;;;;;;;2.99;91.62;99084.50;4917979;28;20063;-81
2022/01/05 01:43:07;;;;;;;8.15;2.40;;;;;;;2.96;91.14;99087.09;4918168;28;20059;-82
2022/01/05 01:45:34;;;;;;;7.53;1.63;;;;;;;2.91;91.75;99081.94;4932713;28;20059;-83
2022/01/05 01:48:02;;;;;;;6.88;1.52;;;;;;;2.88;91.80;99086.25;4913394;28;20173;-80
2022/01/05 01:50:29;;;;;;;4.00;1.83;;;;;;;2.86;92.33;99086.25;4931421;28;20059;-86
2022/01/05 01:52:55;;;;;;;5.18;1.50;;;;;;;2.85;92.28;99078.50;4934721;28;20479;-80
2022/01/05 01:55:22;;;;;;;6.43;0.80;;;;;;;2.85;92.08;99086.25;4920898;28;20584;-85
2022/01/05 01:57:49;;;;;;;3.20;0.98;;;;;;;2.87;92.06;99081.94;4947819;28;20034;-87
2022/01/05 02:00:16;;;;;;;5.93;1.25;;;;;;;2.86;91.95;99093.16;4936469;28;20182;-83
2022/01/05 02:02:45;;;;;;;6.63;1.10;;;;;;;2.88;91.46;99086.25;4935321;28;20047;-83
2022/01/05 02:05:15;;;;;;;5.03;1.25;;;;;;;2.88;91.48;99081.94;4931224;28;20051;-81
2022/01/05 02:07:41;;;;;;;9.43;1.65;;;;;;;2.91;90.17;99081.94;4932849;28;20918;-82
2022/01/05 02:10:10;;;;;;;6.97;1.33;;;;;;;2.91;91.00;99083.66;4928149;28;20525;-85
2022/01/05 02:12:38;;;;;;;4.38;1.48;;;;;;;2.88;91.29;99081.06;4935896;28;20051;-82
2022/01/05 02:15:06;;;;;;;11.27;1.73;;;;;;;2.87;91.39;99076.75;4922764;28;20654;-87
2022/01/05 02:17:45;;;;;;;7.47;2.97;;;;;;;2.84;91.87;99080.22;4930739;28;20066;-84
2022/01/05 02:20:32;;;;;;;3.50;1.38;;;;;;;2.82;91.82;99079.38;4947468;28;20093;-83
2022/01/05 02:23:00;;;;;;;5.20;1.55;;;;;;;2.81;91.85;99075.06;4932065;28;20055;-84
2022/01/05 02:25:27;;;;;;;6.53;2.00;;;;;;;2.78;92.40;99080.25;4929609;28;20191;-82
2022/01/05 02:27:56;;;;;;;3.67;1.25;;;;;;;2.78;92.35;99081.09;4935749;28;21596;-81
2022/01/05 02:30:33;;;;;;;3.80;1.38;;;;;;;2.77;92.25;99075.94;4945353;28;20091;-82
2022/01/05 02:33:00;;;;;;;9.35;1.77;;;;;;;2.77;92.16;99070.78;4928399;28;20047;-84
2022/01/05 02:35:27;;;;;;;11.90;2.05;;;;;;;2.70;92.65;99075.09;4903198;28;20525;-85
2022/01/05 02:37:55;;;;;;;11.85;1.90;;;;;;;2.66;92.91;99078.56;4931909;28;20577;-85
2022/01/05 02:40:24;;;;;;;6.43;1.33;;;;;;;2.63;93.13;99071.69;4911586;28;20263;-83
2022/01/05 02:42:54;;;;;;;9.40;1.45;;;;;;;2.56;93.18;99066.53;4931271;28;20047;-84
2022/01/05 02:45:22;;;;;;;5.32;1.45;;;;;;;2.49;93.94;99076.00;4917677;28;20473;-85
2022/01/05 02:47:49;;;;;;;4.75;2.22;;;;;;;2.46;94.05;99076.00;4930288;28;20059;-82
2022/01/05 02:50:16;;;;;;;10.88;2.35;;;;;;;2.43;94.48;99069.13;4932936;28;20149;-82
2022/01/05 02:52:43;;;;;;;5.75;1.20;;;;;;;2.38;94.40;99073.44;4930110;28;20043;-82
2022/01/05 02:55:12;;;;;;;8.75;3.33;;;;;;;2.34;94.60;99073.44;4928155;28;21338;-85
2022/01/05 02:57:39;;;;;;;6.32;1.17;;;;;;;2.32;94.74;99070.84;4934594;28;20047;-82
2022/01/05 03:00:12;;;;;;;10.35;2.08;;;;;;;2.31;94.66;99079.47;4911870;28;20055;-81
2022/01/05 03:02:39;;;;;;;6.15;2.25;;;;;;;2.29;94.18;99070.84;4931655;28;20051;-84
2022/01/05 03:05:09;;;;;;;3.08;1.92;;;;;;;2.31;94.38;99075.16;4913601;28;20047;-83
2022/01/05 03:07:40;;;;;;;4.78;2.10;;;;;;;2.33;93.60;99080.31;4942506;28;20117;-81
2022/01/05 03:10:10;;;;;;;9.50;1.75;;;;;;;2.30;93.82;99086.34;4928336;28;20122;-81
2022/01/05 03:12:42;;;;;;;6.55;2.33;;;;;;;2.31;93.63;99088.06;4927153;28;20239;-83
2022/01/05 03:15:10;;;;;;;7.18;1.63;;;;;;;2.24;93.80;99083.78;4931648;28;20074;-83
2022/01/05 03:17:37;;;;;;;2.33;1.00;;;;;;;2.25;93.80;99087.22;4911715;28;20062;-85
2022/01/05 03:20:05;;;;;;;5.65;1.63;;;;;;;2.24;94.12;99080.31;4928586;28;20063;-84
2022/01/05 03:22:32;;;;;;;3.13;1.20;;;;;;;2.22;93.61;99085.50;4918769;28;20110;-81
2022/01/05 03:24:58;;;;;;;7.13;0.90;;;;;;;2.25;93.63;99079.47;4939749;28;20043;-87
2022/01/05 03:27:27;;;;;;;8.00;1.80;;;;;;;2.26;93.48;99084.63;4949873;28;20051;-83
2022/01/05 03:29:54;;;;;;;8.63;1.98;;;;;;;2.27;93.54;99085.50;4932567;28;20039;-86
2022/01/05 03:32:21;;;;;;;4.82;2.13;;;;;;;2.28;93.01;99076.88;4956883;28;20087;-88
2022/01/05 03:34:50;;;;;;;4.82;1.63;;;;;;;2.28;93.18;99082.91;4957372;28;20031;-85
2022/01/05 03:37:17;;;;;;;9.48;3.90;;;;;;;2.27;93.24;99093.25;4959051;28;20051;-86
2022/01/05 03:39:43;;;;;;;8.63;2.10;;;;;;;2.27;92.78;99091.53;4954629;28;20035;-88
2022/01/05 03:42:10;;;;;;;6.25;1.20;;;;;;;2.26;92.86;99083.78;4957886;28;20036;-87
2022/01/05 03:44:37;;;;;;;4.70;1.25;;;;;;;2.26;93.03;99092.38;4960646;28;20040;-85
2022/01/05 03:47:04;;;;;;;5.43;2.15;;;;;;;2.25;93.10;99089.78;4945841;28;20059;-82
2022/01/05 03:49:30;;;;;;;8.07;1.35;;;;;;;2.22;93.30;99087.22;4944255;28;20073;-85
2022/01/05 03:51:57;;;;;;;5.25;2.10;;;;;;;2.21;92.69;99090.66;4943821;28;20554;-85
2022/01/05 03:54:23;;;;;;;5.55;1.80;;;;;;;2.22;93.02;99087.22;4935603;28;20074;-84
2022/01/05 03:56:49;;;;;;;5.57;1.83;;;;;;;2.21;93.14;99091.50;4942609;28;20490;-83
2022/01/05 03:59:16;;;;;;;4.63;1.35;;;;;;;2.18;92.76;99098.38;4921621;28;20043;-81
2022/01/05 04:01:43;;;;;;;6.63;1.67;;;;;;;2.13;93.09;99103.56;4939147;28;20051;-81
2022/01/05 04:04:09;;;;;;;3.75;1.45;;;;;;;2.09;93.36;99114.75;4937309;28;21429;-82
2022/01/05 04:06:35;;;;;;;5.75;1.70;;;;;;;2.04;93.17;99119.06;4932050;28;20047;-83
2022/01/05 04:09:02;;;;;;;6.68;2.58;;;;;;;1.98;93.07;99119.88;4933633;28;20059;-83
2022/01/05 04:11:28;;;;;;;5.63;2.30;;;;;;;1.92;93.44;99117.31;4929762;28;20767;-84
2022/01/05 04:13:55;;;;;;;7.47;1.30;;;;;;;1.90;92.93;99129.34;4921082;28;20570;-82
2022/01/05 04:16:24;;;;;;;8.88;1.35;;;;;;;1.86;93.46;99128.47;4939832;28;20047;-82
2022/01/05 04:18:51;;;;;;;7.80;1.02;;;;;;;1.82;93.43;99124.19;4937035;28;20117;-82
2022/01/05 04:21:18;;;;;;;5.85;1.30;;;;;;;1.80;93.03;99136.22;4925721;28;20130;-82
2022/01/05 04:23:44;;;;;;;15.00;2.88;;;;;;;1.76;93.37;99142.22;4937426;28;20055;-81
2022/01/05 04:26:11;;;;;;;4.90;0.88;;;;;;;1.74;92.92;99139.63;4938270;28;20039;-83
2022/01/05 04:28:38;;;;;;;5.88;2.22;;;;;;;1.69;93.30;99138.75;4935433;28;20035;-86
2022/01/05 04:31:04;;;;;;;8.25;2.88;;;;;;;1.72;92.47;99137.91;4952932;28;20146;-86
2022/01/05 04:33:31;;;;;;;3.03;1.70;;;;;;;1.72;92.57;99133.63;4934115;28;20474;-80
2022/01/05 04:35:58;;;;;;;5.22;1.85;;;;;;;1.68;92.20;99138.75;4934044;28;20071;-84
2022/01/05 04:38:25;;;;;;;10.02;1.45;;;;;;;1.64;92.57;99143.94;4953770;28;20047;-86
2022/01/05 04:40:52;;;;;;;3.40;1.48;;;;;;;1.63;92.51;99144.78;4934766;28;20047;-85
2022/01/05 04:43:18;;;;;;;4.88;1.25;;;;;;;1.61;91.75;99151.63;4937062;28;20059;-86
2022/01/05 04:45:45;;;;;;;11.10;1.88;;;;;;;1.61;91.68;99149.06;4935536;28;20054;-81
2022/01/05 04:48:12;;;;;;;8.52;1.77;;;;;;;1.63;91.27;99156.78;4917385;28;20295;-83
2022/01/05 04:50:38;;;;;;;10.93;2.20;;;;;;;1.60;91.21;99146.47;4933850;28;22445;-82
2022/01/05 04:53:05;;;;;;;7.75;1.58;;;;;;;1.61;91.24;99156.78;4932971;28;20050;-82
2022/01/05 04:55:32;;;;;;;7.28;0.88;;;;;;;1.56;91.22;99161.06;4935157;28;21280;-82
2022/01/05 04:57:58;;;;;;;10.65;1.75;;;;;;;1.53;91.54;99163.66;4937879;28;20043;-82
2022/01/05 05:00:25;;;;;;;7.85;2.00;;;;;;;1.52;91.35;99158.50;4928521;28;20055;-84
2022/01/05 05:02:51;;;;;;;9.05;3.65;;;;;;;1.51;91.17;99160.19;4934412;28;20142;-83
2022/01/05 05:05:18;;;;;;;10.02;2.75;;;;;;;1.47;91.51;99156.78;4915048;28;20075;-86
2022/01/05 05:07:53;;;;;;;5.03;1.00;;;;;;;1.43;91.55;99151.59;4932289;28;20047;-81
2022/01/05 05:10:19;;;;;;;12.82;2.13;;;;;;;1.42;91.27;99147.28;4932730;28;20059;-86
2022/01/05 05:12:48;;;;;;;7.07;1.40;;;;;;;1.44;91.28;99151.59;4926964;28;20055;-84
2022/01/05 05:15:15;;;;;;;7.38;1.65;;;;;;;1.39;91.66;99148.13;4933353;28;20040;-87
2022/01/05 05:17:44;;;;;;;7.85;1.33;;;;;;;1.38;91.16;99148.13;4930153;28;20071;-83
2022/01/05 05:20:12;;;;;;;13.60;2.22;;;;;;;1.35;91.40;99148.97;4926444;28;20201;-83
2022/01/05 05:22:38;;;;;;;9.15;1.80;;;;;;;1.34;91.33;99148.97;4921957;28;20047;-81
2022/01/05 05:25:05;;;;;;;7.65;1.75;;;;;;;1.30;91.08;99161.84;4931915;28;20062;-82
2022/01/05 05:27:32;;;;;;;11.55;1.60;;;;;;;1.28;90.84;99152.41;4936053;28;20051;-81
2022/01/05 05:29:58;;;;;;;4.78;1.20;;;;;;;1.28;90.91;99140.34;4937702;28;20047;-80
2022/01/05 05:32:25;;;;;;;7.15;1.58;;;;;;;1.27;90.30;99136.03;4955318;28;20058;-81
2022/01/05 05:34:51;;;;;;;4.13;1.70;;;;;;;1.34;88.97;99128.34;4947169;28;20039;-82
2022/01/05 05:37:18;;;;;;;7.40;1.67;;;;;;;1.39;87.90;99145.53;4938895;28;20047;-82
2022/01/05 05:39:45;;;;;;;6.45;1.38;;;;;;;1.44;86.19;99130.94;4941837;28;20054;-80
2022/01/05 05:42:12;;;;;;;8.70;2.25;;;;;;;1.45;86.37;99126.69;4954616;28;20059;-82
2022/01/05 05:44:39;;;;;;;5.78;1.63;;;;;;;1.47;85.92;99136.13;4930444;29;20047;-81
2022/01/05 05:47:05;;;;;;;9.93;1.52;;;;;;;1.42;85.43;99129.22;4926332;28;20131;-85
2022/01/05 05:49:36;;;;;;;6.10;2.13;;;;;;;1.41;84.79;99133.53;4947078;28;20669;-80
2022/01/05 05:52:08;;;;;;;6.55;2.63;;;;;;;1.43;84.67;99134.38;4948438;28;20877;-82
2022/01/05 05:54:34;;;;;;;16.17;2.40;;;;;;;1.44;84.75;99132.69;4939991;28;20047;-83
2022/01/05 05:57:01;;;;;;;11.65;1.88;;;;;;;1.43;84.55;99139.53;4939010;28;20047;-81
2022/01/05 05:59:29;;;;;;;14.02;1.88;;;;;;;1.44;84.62;99132.69;4926366;28;20050;-80
2022/01/05 06:01:55;;;;;;;8.32;1.60;;;;;;;1.41;84.74;99137.81;4927311;28;20051;-83
2022/01/05 06:04:22;;;;;;;13.18;1.65;;;;;;;1.34;85.19;99138.66;4940793;28;20134;-83
2022/01/05 06:06:48;;;;;;;6.80;1.58;;;;;;;1.26;85.97;99118.84;4939703;28;20047;-83
2022/01/05 06:09:16;;;;;;;4.70;1.00;;;;;;;1.27;86.23;99130.03;4939368;28;20047;-81
2022/01/05 06:11:42;;;;;;;12.80;1.60;;;;;;;1.32;85.86;99125.75;4923282;29;20054;-80
2022/01/05 06:14:09;;;;;;;3.28;1.55;;;;;;;1.35;85.34;99120.59;4936935;28;20094;-83
2022/01/05 06:16:35;;;;;;;4.35;0.85;;;;;;;1.34;85.33;99136.94;4942234;28;20062;-82
2022/01/05 06:19:02;;;;;;;4.90;1.33;;;;;;;1.34;85.02;99136.06;4950944;28;20121;-81
2022/01/05 06:21:29;;;;;;;4.30;1.58;;;;;;;1.35;84.71;99138.66;4952152;28;20708;-81
2022/01/05 06:23:56;;;;;;;5.90;1.77;;;;;;;1.41;84.06;99133.53;4937597;28;20050;-81
2022/01/05 06:26:23;;;;;;;15.35;2.60;;;;;;;1.44;84.68;99136.09;4925863;28;20133;-80
2022/01/05 06:28:51;;;;;;;17.35;1.48;;;;;;;1.46;84.51;99128.38;4944326;28;20561;-82
2022/01/05 06:31:18;;;;;;;9.98;1.95;;;;;;;1.48;84.59;99150.72;4934636;28;20047;-81
2022/01/05 06:33:44;;;;;;;6.60;1.63;;;;;;;1.47;84.73;99140.41;4932877;28;20340;-84
2022/01/05 06:36:11;;;;;;;3.13;1.42;;;;;;;1.43;85.39;99149.84;4915843;28;20050;-80
2022/01/05 06:38:37;;;;;;;10.30;2.60;;;;;;;1.41;85.41;99150.69;4920615;28;20047;-85
2022/01/05 06:41:06;;;;;;;5.85;1.98;;;;;;;1.41;85.72;99148.13;4936388;28;20042;-80
2022/01/05 06:43:34;;;;;;;10.57;1.63;;;;;;;1.36;85.25;99148.13;4929056;28;20082;-83
2022/01/05 06:46:01;;;;;;;7.60;1.75;;;;;;;1.37;85.32;99142.13;4919953;28;20080;-80
2022/01/05 06:48:28;;;;;;;15.00;1.92;;;;;;;1.36;85.67;99155.00;4933545;28;20051;-83
2022/01/05 06:50:54;;;;;;;6.03;1.85;;;;;;;1.36;85.41;99152.44;4935643;28;20215;-79
2022/01/05 06:53:22;;;;;;;8.60;1.52;;;;;;;1.40;85.50;99149.00;4948030;28;20146;-81
2022/01/05 06:55:49;;;;;;;7.80;1.63;;;;;;;1.40;85.46;99155.00;4914870;28;20899;-84
2022/01/05 06:58:17;;;;;;;4.18;1.60;;;;;;;1.44;85.96;99150.72;4935245;28;20043;-85
2022/01/05 07:00:44;;;;;;;7.70;1.83;;;;;;;1.41;86.42;99150.69;4917351;28;20055;-85
2022/01/05 07:03:11;;;;;;;6.88;1.75;;;;;;;1.38;86.51;99151.53;4904377;28;20061;-81
2022/01/05 07:05:39;;;;;;;6.53;2.22;;;;;;;1.41;86.73;99156.75;4927913;28;20071;-80
2022/01/05 07:08:08;;;;;;;11.18;1.75;;;;;;;1.40;86.49;99155.00;4929034;28;20494;-83
2022/01/05 07:10:35;;;;;;;11.15;1.85;;;;;;;1.40;86.66;99159.31;4930445;28;20051;-82
2022/01/05 07:13:03;;;;;;;14.38;4.53;;;;;;;1.43;86.39;99157.59;4930822;28;20379;-82
2022/01/05 07:15:29;;;;;;;5.88;1.60;;;;;;;1.39;86.90;99165.31;4943489;28;20509;-80
2022/01/05 07:17:56;;;;;;;6.53;2.30;;;;;;;1.36;87.28;99173.91;4916741;28;20058;-82
2022/01/05 07:20:22;;;;;;;6.70;2.05;;;;;;;1.35;87.70;99182.50;4937525;28;20055;-80
2022/01/05 07:22:49;;;;;;;6.65;1.92;;;;;;;1.31;88.24;99186.75;4951722;28;20043;-83
2022/01/05 07:25:18;;;;;;;6.63;3.83;;;;;;;1.25;88.67;99148.09;4941169;28;20575;-85
2022/01/05 07:28:09;;;;;;;6.18;2.35;;;;;;;1.29;88.38;99185.03;4960179;28;20052;-82
2022/01/05 07:30:36;;;;;;;5.15;1.85;;;;;;;1.27;88.73;99185.03;4952105;28;20046;-85
2022/01/05 07:33:02;;;;;;;6.80;1.95;;;;;;;1.28;89.06;99194.50;4955494;28;20039;-85
2022/01/05 07:35:32;;;;;;;10.30;2.33;;;;;;;1.28;88.72;99193.63;4955882;28;20052;-82
2022/01/05 07:37:58;;;;;;;12.95;2.58;;;;;;;1.24;89.13;99202.19;4951524;28;20130;-82
2022/01/05 07:40:25;;;;;;;15.88;3.47;;;;;;;1.24;89.06;99197.03;4953170;28;20055;-83
2022/01/05 07:42:51;;;;;;;17.65;4.10;;;;;;;1.26;89.12;99201.34;4958199;28;20050;-83
2022/01/05 07:45:24;;;;;;;6.82;2.40;;;;;;;1.26;88.65;99209.06;4956670;28;20043;-83
2022/01/05 07:47:52;;;;;;;9.38;2.53;;;;;;;1.25;88.96;99214.22;4946552;28;20230;-82
2022/01/05 07:50:19;;;;;;;10.57;3.33;;;;;;;1.26;88.99;99223.69;4927609;28;20082;-79
2022/01/05 07:52:46;;;;;;;5.05;2.75;;;;;;;1.31;88.56;99212.53;4944625;28;20044;-81
2022/01/05 07:55:14;;;;;;;10.90;2.05;;;;;;;1.33;88.03;99215.16;4935008;28;20058;-81
2022/01/05 07:57:41;;;;;;;18.92;4.10;;;;;;;1.32;88.33;99229.75;4938764;28;20406;-82
2022/01/05 08:00:09;;;;;;;7.50;1.85;;;;;;;1.34;87.75;99222.00;4917359;28;21030;-81
2022/01/05 08:02:36;;;;;;;18.10;3.30;;;;;;;1.41;87.69;99235.78;4919790;28;20069;-86
2022/01/05 08:05:04;;;;;;;7.40;2.15;;;;;;;1.43;87.71;99234.94;4946323;28;20133;-83
2022/01/05 08:07:31;;;;;;;5.82;2.38;;;;;;;1.48;87.64;99233.25;4929962;28;20142;-81
2022/01/05 08:10:05;;;;;;;8.40;4.45;;;;;;;1.48;87.62;99227.25;4903866;28;20055;-85
2022/01/05 08:12:34;;;;;;;8.40;3.35;;;;;;;1.49;87.01;99216.94;4944295;28;20182;-84
2022/01/05 08:15:01;;;;;;;13.27;4.03;;;;;;;1.47;87.14;99210.94;4936727;28;20493;-82
2022/01/05 08:17:28;;;;;;;10.90;2.90;;;;;;;1.45;87.56;99215.19;4937651;28;20062;-85
2022/01/05 08:19:54;;;;;;;7.07;2.45;;;;;;;1.46;87.40;99211.78;4916780;28;20079;-84
2022/01/05 08:22:21;;;;;;;9.23;2.83;;;;;;;1.51;87.10;99234.13;4934913;28;20043;-82
2022/01/05 08:24:53;;;;;;;7.07;2.92;;;;;;;1.51;86.82;99222.09;4916227;28;20062;-86
2022/01/05 08:27:20;;;;;;;8.00;2.92;;;;;;;1.48;87.23;99215.19;4932012;28;20693;-83
2022/01/05 08:29:51;;;;;;;6.50;3.28;;;;;;;1.47;87.70;99226.41;4916631;28;20059;-83
2022/01/05 08:32:18;;;;;;;6.20;2.25;;;;;;;1.54;86.80;99216.97;4928710;28;20142;-82
2022/01/05 08:34:45;;;;;;;10.50;5.13;;;;;;;1.59;86.81;99224.72;4915706;28;20047;-81
2022/01/05 08:37:15;;;;;;;6.75;2.35;;;;;;;1.65;86.05;99214.44;4926960;28;20046;-81
2022/01/05 08:39:43;;;;;;;6.85;2.92;;;;;;;1.75;85.63;99223.91;4927416;28;20087;-82
2022/01/05 08:42:10;;;;;;;4.82;2.58;;;;;;;1.93;84.24;99220.53;4911191;28;20131;-82
2022/01/05 08:44:36;;;;;;;5.50;3.33;;;;;;;2.11;83.00;99216.28;4928923;28;21158;-82
2022/01/05 08:47:06;;;;;;;9.68;2.50;;;;;;;2.20;82.33;99220.59;4933423;28;20666;-81
2022/01/05 08:49:34;;;;;;;10.27;2.33;;;;;;;2.27;82.53;99232.69;4926789;28;20522;-82
2022/01/05 08:52:00;;;;;;;10.95;2.53;;;;;;;2.34;81.54;99228.38;4930838;28;20075;-80
2022/01/05 08:54:30;;;;;;;10.38;2.90;;;;;;;2.33;81.36;99216.31;4929505;28;21173;-83
2022/01/05 08:56:57;;;;;;;10.52;2.58;;;;;;;2.36;81.12;99211.16;4912054;28;20055;-81
2022/01/05 08:59:27;;;;;;;3.38;1.80;;;;;;;2.32;80.91;99202.53;4943641;28;20815;-83
2022/01/05 09:01:54;;;;;;;3.92;2.53;;;;;;;2.36;80.37;99206.88;4896729;28;20055;-83
2022/01/05 09:04:20;;;;;;;6.18;2.30;;;;;;;2.38;81.58;99205.13;4931325;28;20055;-84
2022/01/05 09:06:47;;;;;;;8.57;3.58;;;;;;;2.36;81.20;99203.41;4930371;28;21078;-85
2022/01/05 09:09:14;;;;;;;7.20;3.50;;;;;;;2.42;81.29;99212.03;4934353;28;20055;-82
2022/01/05 09:11:41;;;;;;;13.80;2.65;;;;;;;2.40;81.07;99207.72;4945411;28;20103;-84
2022/01/05 09:14:11;;;;;;;11.30;2.55;;;;;;;2.42;81.13;99183.59;4923850;28;20055;-84
2022/01/05 09:16:39;;;;;;;9.27;2.80;;;;;;;2.41;81.42;99206.84;4934459;28;20055;-83
2022/01/05 09:19:06;;;;;;;8.85;3.05;;;;;;;2.41;81.49;99202.56;4912291;28;20077;-85
2022/01/05 09:21:33;;;;;;;4.95;2.70;;;;;;;2.45;81.12;99204.28;4937535;28;20394;-83
2022/01/05 09:24:07;;;;;;;10.75;3.75;;;;;;;2.52;81.44;99206.88;4937817;28;20113;-83
2022/01/05 09:26:34;;;;;;;8.70;3.33;;;;;;;2.52;81.63;99199.97;4933620;28;20051;-86
2022/01/05 09:29:01;;;;;;;7.38;3.63;;;;;;;2.60;81.11;99190.50;4922018;28;20051;-83
2022/01/05 09:31:28;;;;;;;13.98;3.67;;;;;;;2.65;80.40;99206.88;4934095;28;20055;-84
2022/01/05 09:33:55;;;;;;;11.40;4.28;;;;;;;2.66;80.43;99212.91;4923978;28;20074;-83
2022/01/05 09:36:31;;;;;;;8.18;3.15;;;;;;;2.75;80.73;99204.28;4933324;28;20066;-88
2022/01/05 09:42:05;;;;;;;7.18;3.63;;;;;;;2.78;80.29;99204.28;4938867;28;20620;-84
2022/01/05 09:44:44;;;;;;;9.02;4.10;;;;;;;3.01;79.93;99198.22;4929541;28;20059;-81
2022/01/05 09:48:08;;;;;;;12.10;4.18;;;;;;;3.08;81.12;99194.78;4937635;28;20047;-84
2022/01/05 09:50:47;;;;;;;16.50;4.22;;;;;;;3.09;82.20;99193.88;4930556;28;20339;-82
2022/01/05 09:56:16;;;;;;;10.85;3.33;;;;;;;3.07;81.50;99190.47;4930110;28;20043;-81
2022/01/05 09:58:48;;;;;;;10.52;3.15;;;;;;;3.08;81.13;99194.78;4932352;28;20885;-82
2022/01/05 10:01:17;;;;;;;6.22;3.25;;;;;;;3.10;81.56;99185.28;4932135;28;20047;-82
2022/01/05 10:03:44;;;;;;;7.45;4.05;;;;;;;3.15;81.01;99193.88;4933963;28;20051;-85
2022/01/05 10:06:13;;;;;;;7.00;4.07;;;;;;;3.10;80.94;99177.50;4906304;28;20142;-84
2022/01/05 10:08:40;;;;;;;9.82;3.92;;;;;;;3.11;80.81;99189.59;4928513;28;20046;-81
2022/01/05 10:11:10;;;;;;;8.18;3.50;;;;;;;3.13;80.40;99165.44;4922770;28;20463;-80
2022/01/05 10:13:37;;;;;;;8.80;3.58;;;;;;;3.06;80.54;99184.41;4951235;28;20074;-80
2022/01/05 10:16:05;;;;;;;10.57;3.90;;;;;;;3.06;80.83;99171.47;4941375;28;20051;-83
2022/01/05 10:18:41;;;;;;;10.95;3.70;;;;;;;3.11;80.79;99180.09;4946096;28;20499;-81
2022/01/05 10:21:08;;;;;;;5.10;3.63;;;;;;;3.09;82.19;99192.19;4942621;28;20074;-82
2022/01/05 10:23:38;;;;;;;5.03;3.25;;;;;;;2.92;85.49;99196.50;4926220;28;20486;-82
2022/01/05 10:26:39;;;;;;;11.48;4.93;;;;;;;2.56;91.16;99187.94;4936720;28;20057;-86
2022/01/05 10:29:20;;;;;;;8.27;5.65;;;;;;;2.40;93.02;99197.38;4890187;28;20090;-80
2022/01/05 10:31:55;;;;;;;6.53;4.53;;;;;;;2.21;94.78;99204.25;4951751;28;20658;-81
2022/01/05 10:34:28;;;;;;;4.85;3.20;;;;;;;2.01;95.78;99199.03;4938815;28;20062;-80
2022/01/05 10:36:59;;;;;;;3.75;3.45;;;;;;;1.92;97.10;99210.22;4951708;28;20051;-82
2022/01/05 10:42:15;;;;;;;3.03;2.83;;;;;;;1.89;97.13;99208.50;4937142;28;20051;-82
2022/01/05 10:44:44;;;;;;;3.42;3.17;;;;;;;1.95;97.03;99198.16;4917592;28;20126;-82
2022/01/05 10:47:10;;;;;;;3.72;3.42;;;;;;;2.02;96.55;99213.69;4933189;28;20051;-83
2022/01/05 10:49:43;;;;;;;4.15;2.92;;;;;;;2.01;95.46;99205.09;4930064;28;20391;-85
2022/01/05 10:52:26;;;;;;;2.92;2.72;;;;;;;2.02;96.07;99191.34;4919452;28;20051;-84
2022/01/05 10:54:54;;;;;;;3.58;3.25;;;;;;;2.04;96.13;99194.75;4931756;28;20764;-83
2022/01/05 10:57:22;;;;;;;5.03;3.38;;;;;;;2.11;95.73;99200.78;4931782;28;20039;-81
2022/01/05 10:59:54;;;;;;;3.40;3.17;;;;;;;2.17;95.36;99200.81;4933302;28;20106;-82
2022/01/05 11:02:33;;;;;;;4.45;3.75;;;;;;;2.25;95.52;99200.81;4930984;28;20054;-85
2022/01/05 11:05:09;;;;;;;5.95;3.80;;;;;;;2.40;93.93;99198.25;4932318;28;21134;-84
2022/01/05 11:07:39;;;;;;;7.53;3.45;;;;;;;2.48;93.26;99186.19;4929216;28;20126;-83
2022/01/05 11:10:12;;;;;;;3.03;2.83;;;;;;;2.50;92.84;99193.94;4907080;28;20188;-83
2022/01/05 11:12:42;;;;;;;5.20;3.20;;;;;;;2.40;93.56;99175.00;4938773;28;20047;-81
2022/01/05 11:15:30;;;;;;;3.90;3.60;;;;;;;2.25;95.71;99201.66;4934638;28;20045;-85
2022/01/05 11:18:22;;;;;;;4.80;3.83;;;;;;;2.13;97.78;99199.09;4925769;28;20054;-86
2022/01/05 11:21:01;;;;;;;4.75;3.65;;;;;;;2.03;98.37;99216.25;4929562;28;20466;-85
2022/01/05 11:23:28;;;;;;;5.22;3.90;;;;;;;1.94;99.85;99221.41;4947786;28;20055;-86
2022/01/05 11:25:57;;;;;;;4.03;3.42;;;;;;;1.78;100.00;99213.59;4946708;28;20035;-79
2022/01/05 11:28:26;;;;;;;4.72;3.72;;;;;;;1.60;100.00;99236.75;4930162;28;20074;-84
2022/01/05 11:30:55;;;;;;;4.18;3.80;;;;;;;1.45;100.00;99233.25;4945038;28;20046;-86
2022/01/05 11:33:22;;;;;;;7.03;5.72;;;;;;;1.39;100.00;99240.94;4940583;28;20055;-86
2022/01/05 11:35:50;;;;;;;5.18;4.32;;;;;;;1.28;100.00;99228.00;4961646;28;20047;-88
2022/01/05 11:38:17;;;;;;;4.45;3.47;;;;;;;1.27;100.00;99225.41;4954237;28;20138;-81
2022/01/05 11:40:56;;;;;;;4.00;3.70;;;;;;;1.18;100.00;99239.09;4942297;28;20046;-83
2022/01/05 11:43:31;;;;;;;3.83;3.40;;;;;;;1.16;100.00;99233.06;4937877;28;20055;-80
2022/01/05 11:46:16;;;;;;;5.03;3.75;;;;;;;1.15;100.00;99234.78;4941106;28;20449;-84
2022/01/05 11:49:02;;;;;;;;;;;;;;;1.24;100.00;99228.84;4941769;28;20051;-80
2022/01/05 11:51:51;;;;;;;5.15;3.83;;;;;;;1.34;100.00;99226.31;4922148;28;19926;-80
2022/01/05 11:54:30;;;;;;;4.20;3.90;;;;;;;1.40;100.00;99229.78;4940058;28;20135;-81
2022/01/05 11:57:07;;;;;;;5.65;4.70;;;;;;;1.45;100.00;99219.50;4936331;28;20047;-83